Time;durP1;ratioP1;P1;durP2;ratioP2;P2;SDS_P1;SDS_P2;PMS_P1;PMS_P2;Temp;Humidity;BMP_temperature;BMP_pressure;BME280_temperature;BME280_humidity;BME280_pressure;Samples;Min_cycle;Max_cycle;Signal;HPM_P1;HPM_P2
2024/02/12 00:01:45;;;;;;;25.52;9.55;;;;;;;;;;4997231;28;20099;-80
2024/02/12 00:04:14;;;;;;;20.25;7.70;;;;;;;;;;4979610;28;20097;-80
2024/02/12 00:06:42;;;;;;;23.15;5.07;;;;;;;;;;4997021;28;20101;-80
2024/02/12 00:09:12;;;;;;;;;;;;;;;;;;4996706;28;20056;-79
2024/02/12 00:11:43;;;;;;;22.38;5.00;;;;;;;;;;4995692;28;19937;-79
2024/02/12 00:14:09;;;;;;;20.95;4.78;;;;;;;;;;4996316;28;20393;-79
2024/02/12 00:16:40;;;;;;;16.05;3.80;;;;;;;;;;4997021;28;20489;-79
2024/02/12 00:19:10;;;;;;;33.13;4.70;;;;;;;;;;4996125;28;20109;-80
2024/02/12 00:21:37;;;;;;;21.40;5.22;;;;;;;;;;4996592;28;20050;-80
2024/02/12 00:24:04;;;;;;;18.90;4.45;;;;;;;;;;4996162;28;20046;-78
2024/02/12 00:26:32;;;;;;;13.38;3.45;;;;;;;;;;4996766;28;20050;-80
2024/02/12 00:29:00;;;;;;;22.30;4.82;;;;;;;;;;4996628;28;20054;-80
2024/02/12 00:31:27;;;;;;;17.42;4.88;;;;;;;;;;4995990;28;20038;-79
2024/02/12 00:33:54;;;;;;;17.27;3.88;;;;;;;;;;4996591;28;20056;-80
2024/02/12 00:36:23;;;;;;;18.75;3.60;;;;;;;;;;4996053;28;20046;-79
2024/02/12 00:38:50;;;;;;;14.68;3.80;;;;;;;;;;4996643;28;20393;-80
2024/02/12 00:41:20;;;;;;;15.95;4.07;;;;;;;;;;4976422;28;20493;-79
2024/02/12 00:43:47;;;;;;;16.60;3.55;;;;;;;;;;4976876;28;20051;-79
2024/02/12 00:46:18;;;;;;;14.73;4.10;;;;;;;;;;4976445;28;20042;-78
2024/02/12 00:48:45;;;;;;;14.48;3.10;;;;;;;;;;4976892;28;20094;-79
2024/02/12 00:51:15;;;;;;;17.73;3.33;;;;;;;;;;4976384;28;20039;-80
2024/02/12 00:53:45;;;;;;;18.17;4.70;;;;;;;;;;4976652;28;20051;-80
2024/02/12 00:56:15;;;;;;;20.25;5.13;;;;;;;;;;4976169;28;20044;-80
2024/02/12 00:58:44;;;;;;;22.73;5.40;;;;;;;;;;4960252;28;20061;-80
2024/02/12 01:01:12;;;;;;;16.08;4.57;;;;;;;;;;4976162;28;20057;-79
2024/02/12 01:03:39;;;;;;;17.60;4.35;;;;;;;;;;4976434;28;20050;-80
2024/02/12 01:06:06;;;;;;;14.90;5.00;;;;;;;;;;4975776;28;20402;-80
2024/02/12 01:08:38;;;;;;;17.92;5.97;;;;;;;;;;4976279;28;20470;-79
2024/02/12 01:11:07;;;;;;;20.95;5.15;;;;;;;;;;4976177;28;20053;-80
2024/02/12 01:13:34;;;;;;;17.17;4.45;;;;;;;;;;4976555;28;20046;-80
2024/02/12 01:16:01;;;;;;;15.57;4.95;;;;;;;;;;4976324;28;20051;-80
2024/02/12 01:18:28;;;;;;;21.75;4.70;;;;;;;;;;4975857;28;20046;-80
2024/02/12 01:20:55;;;;;;;13.02;4.60;;;;;;;;;;4976232;28;20141;-79
2024/02/12 01:23:23;;;;;;;11.60;4.13;;;;;;;;;;4975676;28;20054;-80
2024/02/12 01:25:51;;;;;;;18.80;4.85;;;;;;;;;;4990472;28;20404;-80
2024/02/12 01:28:19;;;;;;;17.85;4.13;;;;;;;;;;4995068;28;20042;-79
2024/02/12 01:30:47;;;;;;;14.55;4.45;;;;;;;;;;4978145;28;20046;-79
2024/02/12 01:33:16;;;;;;;16.67;4.30;;;;;;;;;;4994737;28;20053;-79
2024/02/12 01:35:43;;;;;;;15.15;5.05;;;;;;;;;;4995488;28;20096;-80
2024/02/12 01:38:11;;;;;;;17.73;4.85;;;;;;;;;;4995048;28;20043;-80
2024/02/12 01:40:38;;;;;;;16.77;4.93;;;;;;;;;;4995335;28;20481;-80
2024/02/12 01:43:05;;;;;;;12.55;4.00;;;;;;;;;;4994772;28;20050;-80
2024/02/12 01:45:33;;;;;;;16.55;3.72;;;;;;;;;;4995323;28;20042;-80
2024/02/12 01:48:01;;;;;;;14.40;3.45;;;;;;;;;;4977979;28;20042;-80
2024/02/12 01:50:31;;;;;;;11.13;2.65;;;;;;;;;;4994750;28;20367;-79
2024/02/12 01:53:00;;;;;;;10.55;3.33;;;;;;;;;;4995344;28;20042;-80
2024/02/12 01:55:29;;;;;;;20.05;3.67;;;;;;;;;;4994247;28;20493;-79
2024/02/12 01:57:56;;;;;;;11.40;2.50;;;;;;;;;;4995142;28;20069;-80
2024/02/12 02:00:25;;;;;;;10.63;2.63;;;;;;;;;;4994512;28;20061;-80
2024/02/12 02:02:52;;;;;;;;;;;;;;;;;;4994259;28;20532;-79
2024/02/12 02:05:19;;;;;;;13.55;3.22;;;;;;;;;;4994388;28;19922;-79
2024/02/12 02:07:52;;;;;;;11.23;2.85;;;;;;;;;;4994832;28;20042;-80
2024/02/12 02:10:20;;;;;;;13.10;2.67;;;;;;;;;;4993974;28;20466;-80
2024/02/12 02:12:48;;;;;;;12.35;3.05;;;;;;;;;;4994866;28;20133;-80
2024/02/12 02:15:15;;;;;;;13.77;3.58;;;;;;;;;;4994289;28;20059;-80
2024/02/12 02:17:42;;;;;;;8.30;2.88;;;;;;;;;;4993599;28;20049;-80
2024/02/12 02:20:10;;;;;;;10.73;2.72;;;;;;;;;;4994232;28;20045;-80
2024/02/12 02:22:38;;;;;;;11.40;1.90;;;;;;;;;;4994698;28;20080;-80
2024/02/12 02:25:05;;;;;;;10.67;2.50;;;;;;;;;;4993906;28;20133;-80
2024/02/12 02:27:33;;;;;;;4.40;1.42;;;;;;;;;;4994584;28;20042;-79
2024/02/12 02:30:07;;;;;;;8.55;1.85;;;;;;;;;;4994535;28;20046;-80
2024/02/12 02:32:35;;;;;;;8.15;2.40;;;;;;;;;;4994306;28;20054;-79
2024/02/12 02:35:10;;;;;;;10.50;2.35;;;;;;;;;;4994217;28;20104;-80
2024/02/12 02:37:36;;;;;;;7.45;2.22;;;;;;;;;;4994141;28;20065;-79
2024/02/12 02:40:04;;;;;;;7.78;1.83;;;;;;;;;;4994200;28;20498;-80
2024/02/12 02:42:31;;;;;;;3.67;1.00;;;;;;;;;;4993900;28;20068;-78
2024/02/12 02:44:58;;;;;;;9.05;2.10;;;;;;;;;;4993950;28;20045;-79
2024/02/12 02:47:24;;;;;;;7.82;1.42;;;;;;;;;;4993713;28;20054;-80
2024/02/12 02:49:51;;;;;;;7.45;1.45;;;;;;;;;;4994003;28;20101;-79
2024/02/12 02:52:18;;;;;;;3.22;0.63;;;;;;;;;;4993428;28;20500;-79
2024/02/12 02:54:45;;;;;;;7.57;0.90;;;;;;;;;;4993894;28;20588;-80
2024/02/12 02:57:13;;;;;;;8.02;1.02;;;;;;;;;;4993447;28;20487;-80
2024/02/12 02:59:41;;;;;;;11.90;1.55;;;;;;;;;;4993726;28;20050;-80
2024/02/12 03:02:10;;;;;;;11.48;2.00;;;;;;;;;;4992273;28;20048;-80
2024/02/12 03:04:40;;;;;;;5.35;1.50;;;;;;;;;;4993802;28;20074;-79
2024/02/12 03:07:07;;;;;;;9.32;1.45;;;;;;;;;;4993472;28;20054;-80
2024/02/12 03:09:37;;;;;;;5.32;1.10;;;;;;;;;;4993496;28;20057;-80
2024/02/12 03:12:04;;;;;;;3.45;0.88;;;;;;;;;;4993779;28;20034;-80
2024/02/12 03:14:31;;;;;;;2.95;0.70;;;;;;;;;;4993547;28;20045;-80
2024/02/12 03:16:58;;;;;;;5.80;0.98;;;;;;;;;;4993612;28;20081;-80
2024/02/12 03:19:25;;;;;;;4.97;1.35;;;;;;;;;;4993171;28;20065;-80
2024/02/12 03:21:52;;;;;;;5.03;0.88;;;;;;;;;;4993463;28;20429;-79
2024/02/12 03:24:19;;;;;;;4.35;0.73;;;;;;;;;;4992883;28;20431;-80
2024/02/12 03:26:48;;;;;;;4.35;1.10;;;;;;;;;;4993712;28;20077;-79
2024/02/12 03:29:14;;;;;;;5.93;1.30;;;;;;;;;;4992944;28;20042;-79
2024/02/12 03:31:41;;;;;;;7.50;1.17;;;;;;;;;;4993346;28;20050;-80
2024/02/12 03:34:08;;;;;;;8.35;1.95;;;;;;;;;;4992988;28;20047;-78
2024/02/12 03:36:42;;;;;;;4.40;1.08;;;;;;;;;;4993522;28;20129;-80
2024/02/12 03:39:10;;;;;;;6.03;1.52;;;;;;;;;;4992855;28;20054;-80
2024/02/12 03:41:38;;;;;;;7.93;1.38;;;;;;;;;;4993348;28;20042;-79
2024/02/12 03:44:05;;;;;;;7.07;1.20;;;;;;;;;;4992800;28;20050;-79
2024/02/12 03:46:35;;;;;;;4.90;1.48;;;;;;;;;;4993495;28;20049;-80
2024/02/12 04:00:16;;;;;;;5.15;1.40;;;;;;;;;;4992711;28;20061;-79
2024/02/12 04:02:46;;;;;;;7.72;1.50;;;;;;;;;;4993142;28;20485;-80
2024/02/12 04:05:14;;;;;;;7.15;1.30;;;;;;;;;;4992604;28;20093;-79
2024/02/12 04:07:41;;;;;;;11.38;1.70;;;;;;;;;;4993057;28;20478;-79
2024/02/12 04:10:10;;;;;;;6.90;1.90;;;;;;;;;;4968605;28;20063;-80
2024/02/12 04:12:39;;;;;;;9.05;1.45;;;;;;;;;;4954620;28;20055;-79
2024/02/12 04:15:13;;;;;;;5.30;1.38;;;;;;;;;;4954372;28;20058;-80
2024/02/12 04:17:45;;;;;;;9.02;1.83;;;;;;;;;;4954476;28;20495;-80
2024/02/12 04:20:14;;;;;;;8.65;2.65;;;;;;;;;;4954003;28;20071;-80
2024/02/12 04:22:41;;;;;;;10.63;4.32;;;;;;;;;;4954656;28;20061;-80
2024/02/12 04:25:10;;;;;;;6.82;1.60;;;;;;;;;;4953779;28;20442;-79
2024/02/12 04:27:37;;;;;;;6.72;1.40;;;;;;;;;;4954407;28;20051;-79
2024/02/12 04:30:06;;;;;;;4.95;1.50;;;;;;;;;;4953138;29;20043;-79
2024/02/12 04:32:33;;;;;;;;;;;;;;;;;;4954496;28;20055;-79
2024/02/12 04:35:01;;;;;;;8.60;1.67;;;;;;;;;;4953991;28;20009;-80
2024/02/12 04:37:29;;;;;;;6.00;1.63;;;;;;;;;;4953875;28;20130;-79
2024/02/12 04:39:56;;;;;;;7.55;1.40;;;;;;;;;;4953029;28;20063;-80
2024/02/12 04:42:22;;;;;;;13.68;1.55;;;;;;;;;;4957047;28;20047;-79
2024/02/12 04:44:49;;;;;;;6.72;1.40;;;;;;;;;;4956440;28;20352;-79
2024/02/12 04:47:16;;;;;;;4.78;1.85;;;;;;;;;;4957319;28;20067;-79
2024/02/12 04:49:43;;;;;;;5.57;1.90;;;;;;;;;;4957563;28;20564;-80
2024/02/12 04:52:10;;;;;;;7.15;1.98;;;;;;;;;;4956911;28;20371;-80
2024/02/12 04:54:38;;;;;;;5.18;1.92;;;;;;;;;;4957690;28;20074;-79
2024/02/12 04:57:06;;;;;;;6.25;1.92;;;;;;;;;;4971909;28;20054;-80
2024/02/12 04:59:32;;;;;;;6.57;1.55;;;;;;;;;;4956134;29;20055;-79
2024/02/12 05:01:59;;;;;;;3.42;1.50;;;;;;;;;;4957486;28;20106;-79
2024/02/12 05:04:29;;;;;;;2.72;1.45;;;;;;;;;;4956761;28;20497;-80
2024/02/12 05:06:56;;;;;;;5.13;2.20;;;;;;;;;;4957332;28;20542;-80
2024/02/12 05:09:24;;;;;;;9.80;1.85;;;;;;;;;;4974168;28;20054;-79
2024/02/12 05:11:52;;;;;;;;;;;;;;;;;;4996292;28;20046;-79
2024/02/12 05:14:23;;;;;;;6.53;1.55;;;;;;;;;;4995347;28;20369;-80
2024/02/12 05:16:50;;;;;;;5.22;1.80;;;;;;;;;;4978657;28;20137;-79
2024/02/12 05:24:48;;;;;;;5.47;1.10;;;;;;;;;;4995349;28;20369;-80
2024/02/12 05:27:15;;;;;;;7.50;1.40;;;;;;;;;;4995241;28;20046;-79
2024/02/12 05:29:42;;;;;;;5.63;1.42;;;;;;;;;;4995652;28;20093;-79
2024/02/12 05:32:09;;;;;;;2.92;1.90;;;;;;;;;;4994978;28;20050;-79
2024/02/12 05:34:36;;;;;;;4.03;1.30;;;;;;;;;;4995554;28;20092;-82
2024/02/12 05:37:04;;;;;;;2.75;1.02;;;;;;;;;;4995392;28;20481;-80
2024/02/12 05:39:33;;;;;;;6.45;1.40;;;;;;;;;;4995079;28;20065;-80
2024/02/12 05:42:00;;;;;;;4.18;0.80;;;;;;;;;;4995364;28;20042;-79
2024/02/12 05:44:28;;;;;;;3.63;0.82;;;;;;;;;;4994703;28;20049;-79
2024/02/12 05:46:56;;;;;;;4.15;0.88;;;;;;;;;;4978062;28;20084;-80
2024/02/12 05:49:23;;;;;;;4.20;0.85;;;;;;;;;;4994662;28;20493;-79
2024/02/12 05:51:50;;;;;;;3.03;0.70;;;;;;;;;;4995283;28;20101;-78
2024/02/12 05:54:17;;;;;;;2.30;0.70;;;;;;;;;;4993361;28;20053;-79
2024/02/12 05:56:44;;;;;;;4.47;1.20;;;;;;;;;;4995096;28;20089;-78
2024/02/12 05:59:14;;;;;;;4.03;0.98;;;;;;;;;;4994437;28;20043;-79
2024/02/12 06:01:41;;;;;;;5.03;2.55;;;;;;;;;;4993788;28;20129;-79
2024/02/12 06:04:11;;;;;;;4.70;1.60;;;;;;;;;;4994319;28;20489;-80
2024/02/12 06:06:38;;;;;;;5.35;1.65;;;;;;;;;;4994511;28;20485;-84
2024/02/12 06:09:06;;;;;;;3.55;1.23;;;;;;;;;;4960853;28;20050;-78
2024/02/12 06:11:33;;;;;;;2.95;1.50;;;;;;;;;;4994795;28;20061;-79
2024/02/12 06:14:01;;;;;;;1.67;1.40;;;;;;;;;;4994604;28;20049;-78
2024/02/12 06:16:28;;;;;;;2.13;1.45;;;;;;;;;;4994197;28;20448;-78
2024/02/12 06:18:56;;;;;;;6.13;2.42;;;;;;;;;;4993445;28;20489;-79
2024/02/12 06:21:23;;;;;;;5.65;1.80;;;;;;;;;;4976812;28;21031;-79
2024/02/12 06:23:51;;;;;;;3.50;1.65;;;;;;;;;;4994470;28;20537;-79
2024/02/12 06:26:22;;;;;;;4.40;1.13;;;;;;;;;;4993756;28;20050;-78
2024/02/12 06:28:51;;;;;;;4.32;1.17;;;;;;;;;;4994352;28;20054;-78
2024/02/12 06:31:18;;;;;;;5.43;1.13;;;;;;;;;;4994060;28;20050;-78
2024/02/12 06:33:44;;;;;;;3.70;0.70;;;;;;;;;;4994091;28;20050;-79
2024/02/12 06:36:13;;;;;;;5.35;1.10;;;;;;;;;;4993820;28;20034;-79
2024/02/12 06:38:40;;;;;;;2.33;1.10;;;;;;;;;;4994373;28;20046;-78
2024/02/12 06:41:07;;;;;;;5.13;1.45;;;;;;;;;;4993650;28;20097;-78
2024/02/12 06:43:34;;;;;;;6.28;1.10;;;;;;;;;;4994091;28;20122;-78
2024/02/12 06:46:01;;;;;;;5.72;1.50;;;;;;;;;;4994206;28;20046;-78
2024/02/12 06:48:28;;;;;;;6.90;1.35;;;;;;;;;;4993340;28;20086;-78
2024/02/12 06:50:57;;;;;;;2.72;0.93;;;;;;;;;;4994150;28;20125;-79
2024/02/12 06:53:24;;;;;;;;;;;;;;;;;;4993551;28;20050;-79
2024/02/12 06:55:51;;;;;;;1.65;0.95;;;;;;;;;;4993987;28;19921;-77
2024/02/12 06:58:17;;;;;;;7.57;1.13;;;;;;;;;;4993207;28;20133;-78
2024/02/12 07:00:44;;;;;;;2.15;0.90;;;;;;;;;;4993831;28;20049;-78
2024/02/12 07:03:11;;;;;;;2.63;0.80;;;;;;;;;;4992524;28;20049;-78
2024/02/12 07:05:38;;;;;;;6.10;1.45;;;;;;;;;;4993621;28;20042;-79
2024/02/12 07:08:06;;;;;;;6.13;1.20;;;;;;;;;;4993212;28;20134;-79
2024/02/12 07:10:33;;;;;;;3.55;1.20;;;;;;;;;;4992855;28;20112;-79
2024/02/12 07:13:05;;;;;;;5.40;1.60;;;;;;;;;;4993327;28;20046;-79
2024/02/12 07:15:32;;;;;;;8.30;2.17;;;;;;;;;;4992911;28;20049;-79
2024/02/12 07:17:58;;;;;;;4.72;1.70;;;;;;;;;;4993786;28;20101;-79
2024/02/12 07:20:25;;;;;;;2.42;0.98;;;;;;;;;;4992968;28;20137;-78
2024/02/12 07:22:52;;;;;;;4.47;1.45;;;;;;;;;;4991630;28;20113;-79
2024/02/12 07:25:19;;;;;;;5.13;1.17;;;;;;;;;;4992471;28;20046;-79
2024/02/12 07:27:46;;;;;;;3.08;0.85;;;;;;;;;;4968301;28;20049;-78
2024/02/12 07:30:14;;;;;;;4.88;0.82;;;;;;;;;;4991938;28;20045;-79
2024/02/12 07:32:41;;;;;;;5.88;1.77;;;;;;;;;;4992195;28;20054;-78
2024/02/12 07:35:08;;;;;;;4.65;0.90;;;;;;;;;;4991636;28;20101;-79
2024/02/12 07:37:41;;;;;;;4.00;1.03;;;;;;;;;;4992382;28;20481;-79
2024/02/12 07:40:11;;;;;;;6.47;1.33;;;;;;;;;;4991659;28;20282;-79
2024/02/12 07:42:39;;;;;;;17.52;2.53;;;;;;;;;;4992575;28;20046;-78
2024/02/12 07:45:10;;;;;;;5.05;1.20;;;;;;;;;;4990946;28;20046;-79
2024/02/12 07:47:39;;;;;;;5.25;1.17;;;;;;;;;;4992345;28;20474;-78
2024/02/12 07:50:06;;;;;;;2.83;1.10;;;;;;;;;;4991577;28;20370;-78
2024/02/12 07:52:33;;;;;;;5.03;1.70;;;;;;;;;;4992428;28;20109;-78
2024/02/12 07:55:01;;;;;;;3.75;1.17;;;;;;;;;;4991509;28;20050;-78
2024/02/12 07:57:28;;;;;;;7.88;1.75;;;;;;;;;;4991630;28;20125;-79
2024/02/12 07:59:56;;;;;;;8.30;1.80;;;;;;;;;;4992007;28;20042;-78
2024/02/12 08:02:24;;;;;;;11.30;1.77;;;;;;;;;;4991706;28;20456;-79
2024/02/12 08:04:51;;;;;;;7.63;1.40;;;;;;;;;;4992037;28;20049;-78
2024/02/12 08:07:19;;;;;;;8.25;1.60;;;;;;;;;;4991909;28;20047;-79
2024/02/12 08:09:50;;;;;;;1.85;1.00;;;;;;;;;;4991757;28;20049;-78
2024/02/12 08:12:18;;;;;;;5.40;1.40;;;;;;;;;;4991693;28;20057;-79
2024/02/12 08:14:45;;;;;;;5.65;1.10;;;;;;;;;;4990685;28;20441;-79
2024/02/12 08:17:11;;;;;;;4.43;1.58;;;;;;;;;;4994869;28;20078;-79
2024/02/12 08:19:54;;;;;;;6.78;1.15;;;;;;;;;;4996113;28;20050;-79
2024/02/12 08:22:23;;;;;;;3.75;1.25;;;;;;;;;;4995150;28;20046;-79
2024/02/12 08:24:51;;;;;;;4.03;1.15;;;;;;;;;;4978264;28;20046;-78
2024/02/12 08:27:20;;;;;;;4.38;1.48;;;;;;;;;;4995070;28;20418;-79
2024/02/12 08:29:48;;;;;;;8.02;1.00;;;;;;;;;;4995823;28;20042;-79
2024/02/12 08:32:14;;;;;;;5.45;1.65;;;;;;;;;;4994975;28;20035;-80
2024/02/12 08:34:43;;;;;;;11.07;1.27;;;;;;;;;;4995606;28;20054;-79
2024/02/12 08:37:10;;;;;;;10.23;1.40;;;;;;;;;;4994818;28;20050;-79
2024/02/12 08:39:37;;;;;;;10.30;1.23;;;;;;;;;;4995457;28;20046;-79
2024/02/12 08:42:04;;;;;;;3.40;1.40;;;;;;;;;;4995273;28;20482;-79
2024/02/12 08:44:31;;;;;;;4.10;1.50;;;;;;;;;;4995404;28;20417;-79
2024/02/12 08:47:01;;;;;;;3.40;1.27;;;;;;;;;;4994906;28;20100;-79
2024/02/12 08:49:28;;;;;;;8.60;1.52;;;;;;;;;;4994770;28;20084;-80
2024/02/12 08:51:56;;;;;;;6.65;1.83;;;;;;;;;;4995090;28;20367;-80
2024/02/12 08:54:23;;;;;;;6.68;1.40;;;;;;;;;;4994668;28;20054;-80
2024/02/12 08:56:50;;;;;;;4.05;1.48;;;;;;;;;;4995004;28;20477;-79
2024/02/12 08:59:19;;;;;;;5.85;1.23;;;;;;;;;;4994851;28;20053;-79
2024/02/12 09:01:46;;;;;;;6.80;1.77;;;;;;;;;;4977533;28;20070;-80
2024/02/12 09:04:13;;;;;;;4.55;1.20;;;;;;;;;;4994537;28;20078;-80
2024/02/12 09:06:40;;;;;;;6.05;1.30;;;;;;;;;;4994825;28;20133;-80
2024/02/12 09:09:12;;;;;;;4.10;0.93;;;;;;;;;;4994566;28;20061;-80
2024/02/12 09:11:41;;;;;;;4.80;1.15;;;;;;;;;;4994455;28;20104;-79
2024/02/12 09:14:09;;;;;;;3.78;1.05;;;;;;;;;;4994657;28;20081;-78
2024/02/12 09:16:39;;;;;;;4.45;0.85;;;;;;;;;;4994853;28;20097;-79
2024/02/12 09:19:06;;;;;;;3.20;0.73;;;;;;;;;;4994238;28;20050;-80
2024/02/12 09:21:33;;;;;;;2.85;0.82;;;;;;;;;;4999339;28;20058;-79
2024/02/12 09:24:00;;;;;;;6.50;1.30;;;;;;;;;;4994720;28;20042;-78
2024/02/12 09:26:26;;;;;;;6.22;0.80;;;;;;;;;;4976373;28;20081;-79
2024/02/12 09:28:54;;;;;;;8.38;0.77;;;;;;;;;;4994668;28;20393;-79
2024/02/12 09:31:20;;;;;;;8.18;0.73;;;;;;;;;;4994035;28;20130;-78
2024/02/12 09:33:47;;;;;;;1.70;0.60;;;;;;;;;;4994587;28;20050;-79
2024/02/12 09:36:15;;;;;;;2.10;0.70;;;;;;;;;;4993664;28;20050;-80
2024/02/12 09:38:42;;;;;;;4.68;0.68;;;;;;;;;;4994728;28;20050;-79
2024/02/12 09:41:11;;;;;;;4.35;0.80;;;;;;;;;;4993544;28;20050;-79
2024/02/12 09:43:42;;;;;;;5.95;0.70;;;;;;;;;;4994526;28;20073;-79
2024/02/12 09:46:13;;;;;;;6.72;0.70;;;;;;;;;;4993604;28;20513;-79
2024/02/12 09:48:41;;;;;;;3.42;1.13;;;;;;;;;;4994053;28;20053;-79
2024/02/12 09:51:09;;;;;;;4.75;1.00;;;;;;;;;;4993822;28;20433;-77
2024/02/12 09:53:38;;;;;;;4.60;0.90;;;;;;;;;;4994050;28;20038;-79
2024/02/12 09:56:06;;;;;;;5.18;0.73;;;;;;;;;;4993724;28;20100;-79
2024/02/12 09:58:33;;;;;;;3.17;0.88;;;;;;;;;;4993985;28;20452;-79
2024/02/12 10:01:08;;;;;;;4.13;1.00;;;;;;;;;;4994091;28;20061;-79
2024/02/12 10:03:34;;;;;;;7.63;1.00;;;;;;;;;;4976261;28;20135;-79
2024/02/12 10:06:01;;;;;;;6.40;1.02;;;;;;;;;;4994003;28;20125;-80
2024/02/12 10:08:28;;;;;;;6.78;0.90;;;;;;;;;;4992964;28;20054;-79
2024/02/12 10:10:56;;;;;;;9.20;1.00;;;;;;;;;;4993934;28;20050;-80
2024/02/12 10:13:23;;;;;;;6.65;0.68;;;;;;;;;;4993070;28;20038;-80
2024/02/12 10:15:51;;;;;;;4.15;1.00;;;;;;;;;;4993844;28;20130;-80
2024/02/12 10:18:20;;;;;;;6.88;0.77;;;;;;;;;;4992905;28;20463;-79
2024/02/12 10:20:48;;;;;;;6.43;0.85;;;;;;;;;;4993657;28;20121;-79
2024/02/12 10:23:16;;;;;;;11.80;1.23;;;;;;;;;;4992986;28;20133;-79
2024/02/12 10:25:47;;;;;;;14.75;1.52;;;;;;;;;;4993528;28;20046;-80
2024/02/12 10:28:17;;;;;;;16.63;1.63;;;;;;;;;;4987938;28;20085;-79
2024/02/12 10:30:46;;;;;;;4.75;0.80;;;;;;;;;;4993199;28;20105;-78
2024/02/12 10:33:14;;;;;;;11.70;0.90;;;;;;;;;;4992847;28;20042;-77
2024/02/12 10:35:46;;;;;;;4.50;0.80;;;;;;;;;;4993001;28;20070;-80
2024/02/12 10:38:14;;;;;;;7.13;1.42;;;;;;;;;;4992114;28;20053;-79
2024/02/12 10:40:53;;;;;;;9.30;1.17;;;;;;;;;;4993052;28;20385;-79
2024/02/12 10:43:23;;;;;;;5.03;0.90;;;;;;;;;;4992340;28;20372;-79
2024/02/12 10:45:51;;;;;;;5.85;0.60;;;;;;;;;;4993412;28;20118;-77
2024/02/12 10:48:20;;;;;;;7.03;1.08;;;;;;;;;;4992378;28;20045;-79
2024/02/12 10:50:48;;;;;;;7.22;1.05;;;;;;;;;;4993222;28;20075;-79
2024/02/12 10:53:18;;;;;;;8.37;0.97;;;;;;;;;;4992369;28;20450;-78
2024/02/12 10:55:45;;;;;;;6.53;0.88;;;;;;;;;;4993132;28;20799;-79
2024/02/12 10:58:13;;;;;;;4.88;1.38;;;;;;;;;;4992100;28;20085;-79
2024/02/12 11:00:40;;;;;;;5.75;0.95;;;;;;;;;;4993061;28;20046;-79
2024/02/12 11:03:29;;;;;;;5.20;0.75;;;;;;;;;;4987610;28;20049;-79
2024/02/12 11:05:56;;;;;;;4.53;0.68;;;;;;;;;;4992809;28;20049;-79
2024/02/12 11:08:23;;;;;;;7.45;1.63;;;;;;;;;;4992154;28;20399;-79
2024/02/12 11:10:50;;;;;;;3.08;0.60;;;;;;;;;;4992490;28;20544;-78
2024/02/12 11:13:19;;;;;;;5.38;0.47;;;;;;;;;;4992527;28;20430;-79
2024/02/12 11:15:48;;;;;;;7.45;0.90;;;;;;;;;;4992133;28;20066;-79
2024/02/12 11:18:15;;;;;;;5.28;0.68;;;;;;;;;;4992321;28;20046;-79
2024/02/12 11:20:49;;;;;;;4.15;0.32;;;;;;;;;;4992451;28;20394;-79
2024/02/12 11:23:21;;;;;;;6.38;0.88;;;;;;;;;;4992053;28;20038;-79
2024/02/12 11:25:49;;;;;;;3.58;0.60;;;;;;;;;;4975354;28;20038;-78
2024/02/12 11:28:23;;;;;;;5.13;0.60;;;;;;;;;;4991784;28;20050;-80
2024/02/12 11:30:50;;;;;;;9.48;1.13;;;;;;;;;;4992471;28;20453;-78
2024/02/12 11:33:17;;;;;;;4.32;0.60;;;;;;;;;;4991762;28;20072;-79
2024/02/12 11:35:45;;;;;;;3.22;0.65;;;;;;;;;;4992480;28;20050;-79
2024/02/12 11:38:14;;;;;;;3.83;0.50;;;;;;;;;;4991758;28;20042;-79
2024/02/12 11:40:42;;;;;;;4.25;0.65;;;;;;;;;;4992408;28;20092;-78
2024/02/12 11:43:09;;;;;;;7.80;0.93;;;;;;;;;;4991582;28;20048;-78
2024/02/12 11:45:36;;;;;;;4.13;0.70;;;;;;;;;;4992489;28;20054;-78
2024/02/12 11:48:10;;;;;;;7.65;0.90;;;;;;;;;;4974802;28;20118;-79
2024/02/12 11:50:38;;;;;;;4.07;0.50;;;;;;;;;;4994523;28;20057;-78
2024/02/12 11:53:05;;;;;;;5.03;0.35;;;;;;;;;;4995926;28;20130;-77
2024/02/12 11:55:33;;;;;;;5.10;0.55;;;;;;;;;;4996624;28;20050;-78
2024/02/12 11:58:00;;;;;;;1.35;0.22;;;;;;;;;;4996535;28;20046;-79
2024/02/12 12:00:28;;;;;;;2.15;0.30;;;;;;;;;;4996069;28;20069;-78
2024/02/12 12:02:55;;;;;;;2.53;0.50;;;;;;;;;;4990885;28;20165;-77
2024/02/12 12:05:26;;;;;;;6.07;0.80;;;;;;;;;;4995991;28;20050;-78
2024/02/12 12:07:54;;;;;;;2.60;0.40;;;;;;;;;;4991282;28;20138;-77
2024/02/12 12:10:28;;;;;;;3.50;0.40;;;;;;;;;;4995341;28;20045;-78
2024/02/12 12:13:00;;;;;;;3.05;0.30;;;;;;;;;;4996160;28;20039;-78
2024/02/12 12:15:28;;;;;;;3.88;1.00;;;;;;;;;;4995336;28;20066;-78
2024/02/12 12:17:58;;;;;;;2.53;0.70;;;;;;;;;;4995055;28;20485;-78
2024/02/12 12:20:29;;;;;;;4.50;0.30;;;;;;;;;;4995315;28;20126;-78
2024/02/12 12:22:58;;;;;;;3.25;0.38;;;;;;;;;;4995593;28;20039;-78
2024/02/12 12:25:26;;;;;;;5.53;0.90;;;;;;;;;;4995256;28;20038;-78
2024/02/12 12:27:53;;;;;;;4.13;0.40;;;;;;;;;;4995576;28;20198;-78
2024/02/12 12:30:20;;;;;;;2.90;0.55;;;;;;;;;;4995390;28;20038;-79
2024/02/12 12:32:49;;;;;;;5.90;0.60;;;;;;;;;;4995505;28;20133;-79
2024/02/12 12:35:17;;;;;;;3.70;0.65;;;;;;;;;;4993975;28;20128;-79
2024/02/12 12:37:49;;;;;;;6.05;0.80;;;;;;;;;;4995320;28;20030;-79
2024/02/12 12:40:19;;;;;;;5.18;0.30;;;;;;;;;;4994881;28;20042;-79
2024/02/12 12:42:47;;;;;;;2.03;0.30;;;;;;;;;;4995398;28;20066;-78
2024/02/12 12:45:16;;;;;;;3.53;0.57;;;;;;;;;;4995133;28;20074;-79
2024/02/12 12:47:43;;;;;;;1.90;0.40;;;;;;;;;;4995208;28;20066;-79
2024/02/12 12:50:13;;;;;;;2.92;0.30;;;;;;;;;;4994873;28;20477;-78
2024/02/12 12:52:42;;;;;;;2.53;0.75;;;;;;;;;;4995588;28;20401;-78
2024/02/12 12:55:12;;;;;;;3.58;0.35;;;;;;;;;;4994991;28;20042;-79
2024/02/12 12:57:45;;;;;;;3.63;0.38;;;;;;;;;;4995191;28;20085;-78
2024/02/12 13:00:21;;;;;;;2.10;0.63;;;;;;;;;;4994572;28;20050;-79
2024/02/12 13:02:53;;;;;;;3.63;0.32;;;;;;;;;;4994486;28;20073;-79
2024/02/12 13:05:21;;;;;;;4.88;0.50;;;;;;;;;;4994775;28;20074;-78
2024/02/12 13:07:48;;;;;;;4.53;0.40;;;;;;;;;;4994743;28;20050;-79
2024/02/12 13:10:37;;;;;;;2.60;0.50;;;;;;;;;;4994337;28;20050;-79
2024/02/12 13:13:11;;;;;;;1.98;0.40;;;;;;;;;;4994736;28;20042;-78
2024/02/12 13:15:43;;;;;;;2.63;0.32;;;;;;;;;;4994803;28;20046;-78
2024/02/12 13:18:12;;;;;;;4.65;0.60;;;;;;;;;;4994497;28;20561;-78
2024/02/12 13:20:41;;;;;;;2.60;0.50;;;;;;;;;;4993677;28;20046;-77
2024/02/12 13:23:09;;;;;;;3.10;0.80;;;;;;;;;;4994508;28;20154;-78
2024/02/12 13:25:36;;;;;;;5.13;0.55;;;;;;;;;;4977338;28;20109;-79
2024/02/12 13:28:03;;;;;;;6.95;0.95;;;;;;;;;;4994750;28;20038;-79
2024/02/12 13:30:31;;;;;;;3.58;0.50;;;;;;;;;;4994454;28;20050;-79
2024/02/12 13:33:00;;;;;;;2.13;0.40;;;;;;;;;;4994506;28;20054;-78
2024/02/12 13:35:28;;;;;;;5.53;0.60;;;;;;;;;;4988840;28;20057;-78
2024/02/12 13:37:55;;;;;;;4.10;0.50;;;;;;;;;;4994428;28;20038;-79
2024/02/12 13:40:27;;;;;;;4.88;0.50;;;;;;;;;;4994099;28;20069;-79
2024/02/12 13:42:56;;;;;;;3.17;0.30;;;;;;;;;;4994230;28;20105;-78
2024/02/12 13:45:23;;;;;;;2.65;0.20;;;;;;;;;;4993811;28;20043;-78
2024/02/12 13:47:52;;;;;;;1.58;0.43;;;;;;;;;;4994198;28;20049;-77
2024/02/12 13:50:20;;;;;;;2.33;0.30;;;;;;;;;;4992730;28;20054;-78
2024/02/12 13:52:47;;;;;;;3.47;0.50;;;;;;;;;;4994025;28;20106;-79
2024/02/12 13:55:15;;;;;;;3.65;0.50;;;;;;;;;;4993876;28;20066;-79
2024/02/12 13:57:44;;;;;;;3.03;0.30;;;;;;;;;;4993967;28;20116;-78
2024/02/12 14:00:18;;;;;;;3.60;0.43;;;;;;;;;;4993582;28;20485;-79
2024/02/12 14:03:05;;;;;;;4.15;0.20;;;;;;;;;;4990751;28;20154;-77
2024/02/12 14:05:32;;;;;;;1.45;0.30;;;;;;;;;;4993920;28;20053;-78
2024/02/12 14:08:01;;;;;;;1.20;0.20;;;;;;;;;;4993957;28;20043;-79
2024/02/12 14:10:27;;;;;;;1.67;0.20;;;;;;;;;;4992952;28;20045;-79
2024/02/12 14:12:57;;;;;;;2.15;0.30;;;;;;;;;;4993106;28;20038;-79
2024/02/12 14:15:30;;;;;;;2.95;0.50;;;;;;;;;;4987872;28;20497;-79
2024/02/12 14:18:17;;;;;;;2.33;0.40;;;;;;;;;;4993210;28;20100;-79
2024/02/12 14:20:44;;;;;;;2.03;0.30;;;;;;;;;;4993550;28;20070;-78
2024/02/12 14:23:11;;;;;;;2.92;0.22;;;;;;;;;;4993198;28;20034;-79
2024/02/12 14:25:40;;;;;;;7.07;0.57;;;;;;;;;;4993213;28;20059;-79
2024/02/12 14:28:09;;;;;;;4.95;0.60;;;;;;;;;;4993244;28;20053;-79
2024/02/12 14:30:36;;;;;;;6.20;0.75;;;;;;;;;;4993293;28;20486;-77
2024/02/12 14:33:05;;;;;;;2.25;0.30;;;;;;;;;;4976272;28;20046;-78
2024/02/12 14:35:38;;;;;;;1.70;0.30;;;;;;;;;;4993226;28;20057;-77
2024/02/12 14:38:08;;;;;;;3.80;0.70;;;;;;;;;;4992994;28;20378;-78
2024/02/12 14:40:35;;;;;;;3.95;0.60;;;;;;;;;;4993099;28;20051;-78
2024/02/12 14:43:02;;;;;;;3.05;0.20;;;;;;;;;;4993311;28;20054;-78
2024/02/12 14:45:29;;;;;;;1.27;0.30;;;;;;;;;;4992639;28;20038;-78
2024/02/12 14:48:04;;;;;;;2.42;0.30;;;;;;;;;;4993267;28;20039;-77
2024/02/12 14:50:33;;;;;;;4.32;0.50;;;;;;;;;;4993024;28;20273;-77
2024/02/12 14:53:00;;;;;;;2.97;0.35;;;;;;;;;;4992856;28;20046;-78
2024/02/12 14:55:27;;;;;;;2.88;0.38;;;;;;;;;;4992814;28;20065;-78
2024/02/12 14:57:54;;;;;;;2.72;0.52;;;;;;;;;;4992964;28;20038;-78
2024/02/12 15:00:23;;;;;;;2.75;0.93;;;;;;;;;;4992379;28;20038;-79
2024/02/12 15:02:53;;;;;;;4.03;0.32;;;;;;;;;;4992781;28;20108;-79
2024/02/12 15:05:20;;;;;;;2.83;0.30;;;;;;;;;;4992619;28;20046;-78